createdAt,value
2018-11-03T00:06:05.777Z,48.54
2018-11-03T00:16:08.537Z,48.25
2018-11-03T00:26:10.975Z,48.30
2018-11-03T00:36:13.535Z,48.50
2018-11-03T00:46:16.012Z,48.73
2018-11-03T00:56:18.857Z,48.51
2018-11-03T01:06:23.918Z,48.90
2018-11-03T01:16:27.030Z,48.58
2018-11-03T01:26:29.673Z,48.88
2018-11-03T01:36:33.241Z,48.24
2018-11-03T01:46:35.686Z,48.11
2018-11-03T01:56:38.890Z,49.28
2018-11-03T02:06:41.341Z,48.49
2018-11-03T02:16:44.575Z,48.55
2018-11-03T02:26:48.027Z,49.45
2018-11-03T02:36:50.481Z,48.24
2018-11-03T02:46:52.873Z,49.14
2018-11-03T02:56:56.945Z,48.67
2018-11-03T03:06:59.874Z,48.63
2018-11-03T03:17:03.442Z,48.73
2018-11-03T03:27:06.292Z,48.70
2018-11-03T03:37:08.692Z,48.69
2018-11-03T03:47:12.048Z,48.58
2018-11-03T03:57:14.474Z,48.54
2018-11-03T04:07:17.034Z,48.94
2018-11-03T04:17:21.151Z,49.03
2018-11-03T04:27:26.108Z,48.74
2018-11-03T04:37:29.220Z,49.22
2018-11-03T04:47:32.234Z,48.36
2018-11-03T04:57:34.699Z,48.52
2018-11-03T05:07:37.187Z,48.50
2018-11-03T05:17:39.614Z,48.83
2018-11-03T05:27:43.591Z,48.75
2018-11-03T05:37:46.226Z,48.36
2018-11-03T05:47:49.330Z,48.51
2018-11-03T05:57:51.753Z,49.15
2018-11-03T06:07:55.343Z,48.40
2018-11-03T06:17:58.416Z,48.09
2018-11-03T06:28:00.963Z,48.24
2018-11-03T06:38:03.336Z,48.55
2018-11-03T06:48:06.026Z,48.35
2018-11-03T06:58:08.534Z,48.43
2018-11-03T07:08:11.330Z,49.07
2018-11-03T07:18:13.802Z,48.29
2018-11-03T07:28:16.334Z,48.20
2018-11-03T07:38:18.852Z,48.21
2018-11-03T07:48:21.549Z,48.26
2018-11-03T07:58:23.932Z,48.28
2018-11-03T08:08:26.265Z,48.82
2018-11-03T08:18:28.723Z,48.10
2018-11-03T08:28:31.860Z,48.34
2018-11-03T08:38:35.184Z,47.77
2018-11-03T08:48:37.629Z,47.73
2018-11-03T08:58:40.037Z,47.66
2018-11-03T09:08:42.425Z,48.28
2018-11-03T09:18:44.826Z,47.82
2018-11-03T09:28:47.374Z,47.95
2018-11-03T09:38:49.890Z,47.65
2018-11-03T09:48:52.289Z,48.23
2018-11-03T09:58:54.865Z,48.91
2018-11-03T10:08:57.358Z,49.06
2018-11-03T10:18:59.857Z,48.22
2018-11-03T10:29:02.361Z,48.01
2018-11-03T10:39:06.669Z,49.12
2018-11-03T10:49:09.099Z,50.82
2018-11-03T10:59:11.632Z,50.12
2018-11-03T11:09:19.590Z,50.39
2018-11-03T11:19:21.970Z,49.40
2018-11-03T11:29:24.477Z,50.57
2018-11-03T11:39:27.276Z,49.54
2018-11-03T11:49:29.793Z,49.47
2018-11-03T11:59:32.362Z,48.96
2018-11-03T12:09:34.789Z,48.12
2018-11-03T12:19:37.172Z,48.89
2018-11-03T12:29:40.365Z,47.96
2018-11-03T12:39:42.834Z,47.67
2018-11-03T12:49:45.320Z,46.92
2018-11-03T12:59:47.845Z,47.96
2018-11-03T13:09:50.805Z,47.34
2018-11-03T13:19:53.282Z,47.21
2018-11-03T13:29:55.691Z,47.80
2018-11-03T13:39:58.238Z,48.04
2018-11-03T13:50:00.673Z,48.29
2018-11-03T14:00:03.061Z,47.83
2018-11-03T14:10:06.085Z,47.33
2018-11-03T14:20:09.701Z,47.07
2018-11-03T14:30:13.008Z,46.99
2018-11-03T14:40:16.370Z,47.15
2018-11-03T14:50:18.802Z,46.89
2018-11-03T15:00:21.246Z,47.52
2018-11-03T15:10:23.740Z,47.60
2018-11-03T15:20:26.233Z,47.02
2018-11-03T15:30:28.781Z,47.41
2018-11-03T15:40:31.232Z,47.64
2018-11-03T15:50:33.708Z,46.69
2018-11-03T16:00:36.322Z,46.67
2018-11-03T16:10:38.874Z,47.13
2018-11-03T16:20:41.458Z,46.68
2018-11-03T16:30:44.266Z,47.24
2018-11-03T16:40:46.929Z,46.58
2018-11-03T16:50:49.766Z,47.81
2018-11-03T17:00:52.322Z,47.43
2018-11-03T17:10:54.770Z,47.06
2018-11-03T17:20:57.408Z,47.69
2018-11-03T17:30:59.963Z,47.45
2018-11-03T17:41:02.406Z,46.69
2018-11-03T17:51:05.002Z,46.73
2018-11-03T18:01:07.745Z,47.21
2018-11-03T18:11:10.256Z,47.30
2018-11-03T18:21:12.811Z,48.54
2018-11-03T18:31:15.389Z,47.18
2018-11-03T18:41:17.774Z,47.61
2018-11-03T18:51:20.374Z,47.42
2018-11-03T19:01:23.219Z,48.07
2018-11-03T19:11:25.593Z,50.77
2018-11-03T19:21:28.125Z,50.80
2018-11-03T19:31:30.532Z,49.75
2018-11-03T19:41:33.148Z,48.11
2018-11-03T19:51:35.574Z,48.02
2018-11-03T20:01:38.190Z,47.70
2018-11-03T20:11:40.771Z,47.65
2018-11-03T20:21:43.494Z,47.13
2018-11-03T20:31:46.209Z,46.59
2018-11-03T20:41:48.807Z,46.80
2018-11-03T20:51:51.172Z,46.35
2018-11-03T21:01:53.827Z,46.69
2018-11-03T21:11:56.219Z,46.08
2018-11-03T21:22:00.316Z,46.89
2018-11-03T21:32:02.922Z,48.04
2018-11-03T21:42:05.465Z,48.66
2018-11-03T21:52:07.937Z,48.42
2018-11-03T22:02:10.451Z,48.29
2018-11-03T22:12:12.945Z,48.63
2018-11-03T22:22:15.343Z,48.96
2018-11-03T22:32:18.524Z,49.25
2018-11-03T22:42:21.217Z,49.33
2018-11-03T22:52:23.972Z,49.37
2018-11-03T23:02:27.924Z,48.62
2018-11-03T23:12:31.157Z,49.00
2018-11-03T23:22:33.977Z,49.76
2018-11-03T23:32:36.713Z,49.45
2018-11-03T23:42:39.903Z,48.83
2018-11-03T23:52:45.466Z,49.86
